sensor_id;sensor_type;location;lat;lon;timestamp;temperature;humidity
23081;DHT22;11708;50.570;8.532;2022-11-20T00:01:14;0.00;99.90
23081;DHT22;11708;50.570;8.532;2022-11-20T00:06:12;-0.10;99.90
23081;DHT22;11708;50.570;8.532;2022-11-20T00:11:10;0.20;99.90
23081;DHT22;11708;50.570;8.532;2022-11-20T00:16:04;0.30;99.90
23081;DHT22;11708;50.570;8.532;2022-11-20T00:21:15;0.20;99.90
23081;DHT22;11708;50.570;8.532;2022-11-20T00:23:41;0.10;99.90
23081;DHT22;11708;50.570;8.532;2022-11-20T00:26:09;0.30;99.90
23081;DHT22;11708;50.570;8.532;2022-11-20T00:31:13;0.40;99.90
23081;DHT22;11708;50.570;8.532;2022-11-20T00:33:38;0.70;99.90
23081;DHT22;11708;50.570;8.532;2022-11-20T00:36:10;0.10;99.90
23081;DHT22;11708;50.570;8.532;2022-11-20T00:38:36;0.20;99.90
23081;DHT22;11708;50.570;8.532;2022-11-20T00:41:04;0.30;99.90
23081;DHT22;11708;50.570;8.532;2022-11-20T00:46:05;0.10;99.90
23081;DHT22;11708;50.570;8.532;2022-11-20T00:48:31;0.60;99.90
23081;DHT22;11708;50.570;8.532;2022-11-20T00:50:58;0.00;99.90
23081;DHT22;11708;50.570;8.532;2022-11-20T00:53:24;0.50;99.90
23081;DHT22;11708;50.570;8.532;2022-11-20T00:55:57;0.20;99.90
23081;DHT22;11708;50.570;8.532;2022-11-20T01:00:49;0.70;99.90
23081;DHT22;11708;50.570;8.532;2022-11-20T01:03:18;0.50;99.90
23081;DHT22;11708;50.570;8.532;2022-11-20T01:13:03;0.60;99.90
23081;DHT22;11708;50.570;8.532;2022-11-20T01:15:47;0.30;99.90
23081;DHT22;11708;50.570;8.532;2022-11-20T01:18:13;0.70;99.90
23081;DHT22;11708;50.570;8.532;2022-11-20T01:20:38;0.80;99.90
23081;DHT22;11708;50.570;8.532;2022-11-20T01:27:56;0.30;99.90
23081;DHT22;11708;50.570;8.532;2022-11-20T01:40:05;0.40;99.90
23081;DHT22;11708;50.570;8.532;2022-11-20T01:48:16;0.80;99.90
23081;DHT22;11708;50.570;8.532;2022-11-20T01:50:42;0.60;99.90
23081;DHT22;11708;50.570;8.532;2022-11-20T01:53:13;0.50;99.90
23081;DHT22;11708;50.570;8.532;2022-11-20T01:55:44;0.80;99.90
23081;DHT22;11708;50.570;8.532;2022-11-20T01:58:11;0.80;99.90
23081;DHT22;11708;50.570;8.532;2022-11-20T02:03:06;0.70;99.90
23081;DHT22;11708;50.570;8.532;2022-11-20T02:05:55;0.90;99.90
23081;DHT22;11708;50.570;8.532;2022-11-20T02:08:24;1.00;99.90
23081;DHT22;11708;50.570;8.532;2022-11-20T02:10:49;0.70;99.90
23081;DHT22;11708;50.570;8.532;2022-11-20T02:16:01;0.70;99.90
23081;DHT22;11708;50.570;8.532;2022-11-20T02:18:27;0.30;99.90
23081;DHT22;11708;50.570;8.532;2022-11-20T02:26:32;0.70;99.90
23081;DHT22;11708;50.570;8.532;2022-11-20T02:29:00;0.70;99.90
23081;DHT22;11708;50.570;8.532;2022-11-20T02:33:58;0.50;99.90
23081;DHT22;11708;50.570;8.532;2022-11-20T02:36:26;0.70;99.90
23081;DHT22;11708;50.570;8.532;2022-11-20T02:38:54;1.00;99.90
23081;DHT22;11708;50.570;8.532;2022-11-20T02:53:29;0.90;99.90
23081;DHT22;11708;50.570;8.532;2022-11-20T02:55:55;0.70;99.90
23081;DHT22;11708;50.570;8.532;2022-11-20T02:58:21;0.80;99.90
23081;DHT22;11708;50.570;8.532;2022-11-20T03:03:12;0.80;99.90
23081;DHT22;11708;50.570;8.532;2022-11-20T03:15:25;0.60;99.90
23081;DHT22;11708;50.570;8.532;2022-11-20T03:17:54;0.60;99.90
23081;DHT22;11708;50.570;8.532;2022-11-20T03:22:47;0.50;99.90
23081;DHT22;11708;50.570;8.532;2022-11-20T03:30:05;0.50;99.90
23081;DHT22;11708;50.570;8.532;2022-11-20T03:34:58;1.10;99.90
23081;DHT22;11708;50.570;8.532;2022-11-20T03:45:00;0.80;99.90
23081;DHT22;11708;50.570;8.532;2022-11-20T03:47:28;1.00;99.90
23081;DHT22;11708;50.570;8.532;2022-11-20T04:11:48;0.50;99.90
23081;DHT22;11708;50.570;8.532;2022-11-20T04:14:15;0.80;99.90
23081;DHT22;11708;50.570;8.532;2022-11-20T04:19:11;0.70;99.90
23081;DHT22;11708;50.570;8.532;2022-11-20T04:24:08;1.00;99.90
23081;DHT22;11708;50.570;8.532;2022-11-20T04:29:02;0.70;99.90
23081;DHT22;11708;50.570;8.532;2022-11-20T04:31:29;0.70;99.90
23081;DHT22;11708;50.570;8.532;2022-11-20T04:34:01;0.80;99.90
23081;DHT22;11708;50.570;8.532;2022-11-20T04:36:28;0.80;99.90
23081;DHT22;11708;50.570;8.532;2022-11-20T04:38:58;0.80;99.90
23081;DHT22;11708;50.570;8.532;2022-11-20T04:41:30;0.60;99.90
23081;DHT22;11708;50.570;8.532;2022-11-20T04:43:57;0.80;99.90
23081;DHT22;11708;50.570;8.532;2022-11-20T04:46:32;0.60;99.90
23081;DHT22;11708;50.570;8.532;2022-11-20T04:48:59;0.80;99.90
23081;DHT22;11708;50.570;8.532;2022-11-20T05:01:14;0.80;99.90
23081;DHT22;11708;50.570;8.532;2022-11-20T05:03:41;0.80;99.90
23081;DHT22;11708;50.570;8.532;2022-11-20T05:06:08;1.70;99.90
23081;DHT22;11708;50.570;8.532;2022-11-20T05:08:34;0.60;99.90
23081;DHT22;11708;50.570;8.532;2022-11-20T05:11:15;0.80;99.90
23081;DHT22;11708;50.570;8.532;2022-11-20T05:16:12;0.60;99.90
23081;DHT22;11708;50.570;8.532;2022-11-20T05:18:40;0.80;99.90
23081;DHT22;11708;50.570;8.532;2022-11-20T05:21:06;0.90;99.90
23081;DHT22;11708;50.570;8.532;2022-11-20T05:23:33;0.90;99.90
23081;DHT22;11708;50.570;8.532;2022-11-20T05:33:21;0.80;99.90
23081;DHT22;11708;50.570;8.532;2022-11-20T05:47:59;0.90;99.90
23081;DHT22;11708;50.570;8.532;2022-11-20T06:00:09;1.00;99.90
23081;DHT22;11708;50.570;8.532;2022-11-20T06:09:53;1.10;99.90
23081;DHT22;11708;50.570;8.532;2022-11-20T06:12:19;1.00;99.90
23081;DHT22;11708;50.570;8.532;2022-11-20T06:14:44;1.30;99.90
23081;DHT22;11708;50.570;8.532;2022-11-20T06:19:36;1.10;99.90
23081;DHT22;11708;50.570;8.532;2022-11-20T06:46:23;0.80;99.90
23081;DHT22;11708;50.570;8.532;2022-11-20T06:48:49;1.00;99.90
23081;DHT22;11708;50.570;8.532;2022-11-20T06:58:34;1.30;99.90
23081;DHT22;11708;50.570;8.532;2022-11-20T07:01:02;1.00;99.90
23081;DHT22;11708;50.570;8.532;2022-11-20T07:05:55;0.80;99.90
23081;DHT22;11708;50.570;8.532;2022-11-20T07:08:21;1.40;99.90
23081;DHT22;11708;50.570;8.532;2022-11-20T07:13:13;1.10;99.90
23081;DHT22;11708;50.570;8.532;2022-11-20T07:18:09;1.00;99.90
23081;DHT22;11708;50.570;8.532;2022-11-20T07:20:35;1.10;99.90
23081;DHT22;11708;50.570;8.532;2022-11-20T07:25:27;1.00;99.90
23081;DHT22;11708;50.570;8.532;2022-11-20T07:28:00;1.10;99.90
23081;DHT22;11708;50.570;8.532;2022-11-20T07:30:29;1.10;99.90
23081;DHT22;11708;50.570;8.532;2022-11-20T07:32:55;1.10;99.90
23081;DHT22;11708;50.570;8.532;2022-11-20T07:40:15;1.20;99.90
23081;DHT22;11708;50.570;8.532;2022-11-20T07:42:52;1.20;99.90
23081;DHT22;11708;50.570;8.532;2022-11-20T07:45:19;0.90;99.90
23081;DHT22;11708;50.570;8.532;2022-11-20T07:55:04;1.10;99.90
23081;DHT22;11708;50.570;8.532;2022-11-20T07:57:35;1.10;99.90
23081;DHT22;11708;50.570;8.532;2022-11-20T08:00:03;1.30;99.90
23081;DHT22;11708;50.570;8.532;2022-11-20T08:02:28;1.30;99.90
23081;DHT22;11708;50.570;8.532;2022-11-20T08:07:20;0.90;99.90
23081;DHT22;11708;50.570;8.532;2022-11-20T08:12:18;1.50;99.90
23081;DHT22;11708;50.570;8.532;2022-11-20T08:15:04;1.50;99.90
23081;DHT22;11708;50.570;8.532;2022-11-20T08:19:56;1.40;99.90
23081;DHT22;11708;50.570;8.532;2022-11-20T08:22:21;1.30;99.90
23081;DHT22;11708;50.570;8.532;2022-11-20T08:24:48;1.20;99.90
23081;DHT22;11708;50.570;8.532;2022-11-20T08:44:16;1.30;99.90
23081;DHT22;11708;50.570;8.532;2022-11-20T08:46:41;1.50;99.90
23081;DHT22;11708;50.570;8.532;2022-11-20T08:49:10;1.50;99.90
23081;DHT22;11708;50.570;8.532;2022-11-20T08:54:03;1.60;99.90
23081;DHT22;11708;50.570;8.532;2022-11-20T08:58:55;1.80;99.90
23081;DHT22;11708;50.570;8.532;2022-11-20T09:11:06;1.80;99.90
23081;DHT22;11708;50.570;8.532;2022-11-20T09:13:33;1.80;99.90
23081;DHT22;11708;50.570;8.532;2022-11-20T09:16:02;1.90;99.90
23081;DHT22;11708;50.570;8.532;2022-11-20T09:18:28;1.90;99.90
23081;DHT22;11708;50.570;8.532;2022-11-20T09:20:59;1.70;99.90
23081;DHT22;11708;50.570;8.532;2022-11-20T09:35:38;1.80;99.90
23081;DHT22;11708;50.570;8.532;2022-11-20T09:38:07;2.00;99.90
23081;DHT22;11708;50.570;8.532;2022-11-20T09:40:35;2.10;99.90
23081;DHT22;11708;50.570;8.532;2022-11-20T09:43:22;2.00;99.90
23081;DHT22;11708;50.570;8.532;2022-11-20T09:46:01;2.00;99.90
23081;DHT22;11708;50.570;8.532;2022-11-20T09:48:33;1.80;99.90
23081;DHT22;11708;50.570;8.532;2022-11-20T09:56:03;2.70;99.90
23081;DHT22;11708;50.570;8.532;2022-11-20T10:01:03;2.40;99.90
23081;DHT22;11708;50.570;8.532;2022-11-20T10:04:00;2.20;99.90
23081;DHT22;11708;50.570;8.532;2022-11-20T10:06:59;2.50;99.90
23081;DHT22;11708;50.570;8.532;2022-11-20T10:09:37;2.50;99.90
23081;DHT22;11708;50.570;8.532;2022-11-20T10:15:04;2.30;99.90
23081;DHT22;11708;50.570;8.532;2022-11-20T10:17:58;2.50;99.90
23081;DHT22;11708;50.570;8.532;2022-11-20T10:25:46;2.80;99.90
23081;DHT22;11708;50.570;8.532;2022-11-20T10:28:24;2.90;99.90
23081;DHT22;11708;50.570;8.532;2022-11-20T10:31:02;2.50;99.90
23081;DHT22;11708;50.570;8.532;2022-11-20T10:33:34;2.70;99.90
23081;DHT22;11708;50.570;8.532;2022-11-20T10:36:07;2.50;99.90
23081;DHT22;11708;50.570;8.532;2022-11-20T10:38:43;2.90;99.90
23081;DHT22;11708;50.570;8.532;2022-11-20T10:41:23;2.30;99.90
23081;DHT22;11708;50.570;8.532;2022-11-20T10:44:37;2.80;99.90
23081;DHT22;11708;50.570;8.532;2022-11-20T10:46:44;2.90;99.90
23081;DHT22;11708;50.570;8.532;2022-11-20T10:49:14;2.80;99.90
23081;DHT22;11708;50.570;8.532;2022-11-20T11:00:10;2.60;99.90
23081;DHT22;11708;50.570;8.532;2022-11-20T11:02:43;2.60;99.90
23081;DHT22;11708;50.570;8.532;2022-11-20T11:07:59;2.90;99.90
23081;DHT22;11708;50.570;8.532;2022-11-20T11:13:02;3.00;99.90
23081;DHT22;11708;50.570;8.532;2022-11-20T11:15:39;2.90;99.90
23081;DHT22;11708;50.570;8.532;2022-11-20T11:18:09;3.00;99.90
23081;DHT22;11708;50.570;8.532;2022-11-20T11:27:55;3.00;99.90
23081;DHT22;11708;50.570;8.532;2022-11-20T11:30:28;2.90;99.90
23081;DHT22;11708;50.570;8.532;2022-11-20T11:33:11;3.30;99.90
23081;DHT22;11708;50.570;8.532;2022-11-20T11:35:46;3.00;99.90
23081;DHT22;11708;50.570;8.532;2022-11-20T11:38:18;3.20;99.90
23081;DHT22;11708;50.570;8.532;2022-11-20T11:40:46;3.40;99.90
23081;DHT22;11708;50.570;8.532;2022-11-20T11:43:19;3.30;99.90
23081;DHT22;11708;50.570;8.532;2022-11-20T11:54:50;3.60;99.90
23081;DHT22;11708;50.570;8.532;2022-11-20T12:00:16;3.60;99.90
23081;DHT22;11708;50.570;8.532;2022-11-20T12:13:04;3.90;99.90
23081;DHT22;11708;50.570;8.532;2022-11-20T12:15:34;3.80;99.90
23081;DHT22;11708;50.570;8.532;2022-11-20T12:18:00;3.70;99.90
23081;DHT22;11708;50.570;8.532;2022-11-20T12:20:34;3.80;99.90
23081;DHT22;11708;50.570;8.532;2022-11-20T12:23:30;3.80;99.90
23081;DHT22;11708;50.570;8.532;2022-11-20T12:26:05;3.80;99.90
23081;DHT22;11708;50.570;8.532;2022-11-20T12:37:11;4.10;99.90
23081;DHT22;11708;50.570;8.532;2022-11-20T12:39:48;4.10;99.90
23081;DHT22;11708;50.570;8.532;2022-11-20T12:42:45;4.10;99.90
23081;DHT22;11708;50.570;8.532;2022-11-20T12:46:02;4.10;99.90
23081;DHT22;11708;50.570;8.532;2022-11-20T12:48:54;3.90;99.90
23081;DHT22;11708;50.570;8.532;2022-11-20T12:54:42;4.10;99.90
23081;DHT22;11708;50.570;8.532;2022-11-20T12:57:18;4.10;99.90
23081;DHT22;11708;50.570;8.532;2022-11-20T13:00:29;4.20;99.90
23081;DHT22;11708;50.570;8.532;2022-11-20T13:05:24;4.10;99.90
23081;DHT22;11708;50.570;8.532;2022-11-20T13:07:53;4.20;99.90
23081;DHT22;11708;50.570;8.532;2022-11-20T13:10:30;4.10;99.90
23081;DHT22;11708;50.570;8.532;2022-11-20T13:13:01;4.00;99.90
23081;DHT22;11708;50.570;8.532;2022-11-20T13:18:11;4.20;99.90
23081;DHT22;11708;50.570;8.532;2022-11-20T13:20:45;4.20;99.90
23081;DHT22;11708;50.570;8.532;2022-11-20T13:23:23;4.20;99.90
23081;DHT22;11708;50.570;8.532;2022-11-20T13:25:50;4.20;99.90
23081;DHT22;11708;50.570;8.532;2022-11-20T13:30:52;4.30;99.90
23081;DHT22;11708;50.570;8.532;2022-11-20T13:33:34;4.30;99.90
23081;DHT22;11708;50.570;8.532;2022-11-20T13:36:04;4.30;99.90
23081;DHT22;11708;50.570;8.532;2022-11-20T13:38:48;4.30;99.90
23081;DHT22;11708;50.570;8.532;2022-11-20T13:41:34;4.30;99.90
23081;DHT22;11708;50.570;8.532;2022-11-20T13:46:58;4.30;99.90
23081;DHT22;11708;50.570;8.532;2022-11-20T13:49:30;4.20;99.90
23081;DHT22;11708;50.570;8.532;2022-11-20T13:54:52;4.10;99.90
23081;DHT22;11708;50.570;8.532;2022-11-20T14:02:22;4.00;99.90
23081;DHT22;11708;50.570;8.532;2022-11-20T14:04:51;4.00;99.90
23081;DHT22;11708;50.570;8.532;2022-11-20T14:07:19;4.00;99.90
23081;DHT22;11708;50.570;8.532;2022-11-20T14:09:54;4.00;99.90
23081;DHT22;11708;50.570;8.532;2022-11-20T14:12:27;4.00;99.90
23081;DHT22;11708;50.570;8.532;2022-11-20T14:14:54;4.00;99.90
23081;DHT22;11708;50.570;8.532;2022-11-20T14:17:30;4.00;99.90
23081;DHT22;11708;50.570;8.532;2022-11-20T14:20:01;3.90;99.90
23081;DHT22;11708;50.570;8.532;2022-11-20T14:27:39;3.90;99.90
23081;DHT22;11708;50.570;8.532;2022-11-20T14:30:16;3.90;99.90
23081;DHT22;11708;50.570;8.532;2022-11-20T14:32:44;4.00;99.90
23081;DHT22;11708;50.570;8.532;2022-11-20T14:35:17;4.00;99.90
23081;DHT22;11708;50.570;8.532;2022-11-20T14:40:31;3.90;99.90
23081;DHT22;11708;50.570;8.532;2022-11-20T14:42:58;4.10;99.90
23081;DHT22;11708;50.570;8.532;2022-11-20T14:45:25;3.90;99.90
23081;DHT22;11708;50.570;8.532;2022-11-20T14:47:56;3.90;99.90
23081;DHT22;11708;50.570;8.532;2022-11-20T14:50:25;3.90;99.90
23081;DHT22;11708;50.570;8.532;2022-11-20T14:52:53;3.90;99.90
23081;DHT22;11708;50.570;8.532;2022-11-20T14:55:39;3.90;99.90
23081;DHT22;11708;50.570;8.532;2022-11-20T14:58:20;3.90;99.90
23081;DHT22;11708;50.570;8.532;2022-11-20T15:00:58;3.90;99.90
23081;DHT22;11708;50.570;8.532;2022-11-20T15:03:40;3.90;99.90
23081;DHT22;11708;50.570;8.532;2022-11-20T15:06:10;3.90;99.90
23081;DHT22;11708;50.570;8.532;2022-11-20T15:08:36;3.80;99.90
23081;DHT22;11708;50.570;8.532;2022-11-20T15:11:02;3.80;99.90
23081;DHT22;11708;50.570;8.532;2022-11-20T15:13:33;3.80;99.90
23081;DHT22;11708;50.570;8.532;2022-11-20T15:16:01;3.80;99.90
23081;DHT22;11708;50.570;8.532;2022-11-20T15:18:37;3.80;99.90
23081;DHT22;11708;50.570;8.532;2022-11-20T15:21:10;3.80;99.90
23081;DHT22;11708;50.570;8.532;2022-11-20T15:26:04;3.80;99.90
23081;DHT22;11708;50.570;8.532;2022-11-20T15:28:41;3.80;99.90
23081;DHT22;11708;50.570;8.532;2022-11-20T15:31:12;3.70;99.90
23081;DHT22;11708;50.570;8.532;2022-11-20T15:33:37;3.70;99.90
23081;DHT22;11708;50.570;8.532;2022-11-20T15:36:04;3.70;99.90
23081;DHT22;11708;50.570;8.532;2022-11-20T15:45:52;3.70;99.90
23081;DHT22;11708;50.570;8.532;2022-11-20T15:48:29;3.90;99.90
23081;DHT22;11708;50.570;8.532;2022-11-20T15:53:25;3.70;99.90
23081;DHT22;11708;50.570;8.532;2022-11-20T15:55:52;3.70;99.90
23081;DHT22;11708;50.570;8.532;2022-11-20T15:58:17;3.70;99.90
23081;DHT22;11708;50.570;8.532;2022-11-20T16:00:43;3.40;99.90
23081;DHT22;11708;50.570;8.532;2022-11-20T16:03:14;3.80;99.90
23081;DHT22;11708;50.570;8.532;2022-11-20T16:05:41;3.80;99.90
23081;DHT22;11708;50.570;8.532;2022-11-20T16:08:07;3.70;99.90
23081;DHT22;11708;50.570;8.532;2022-11-20T16:12:58;3.70;99.90
23081;DHT22;11708;50.570;8.532;2022-11-20T16:15:46;3.70;99.90
23081;DHT22;11708;50.570;8.532;2022-11-20T16:18:20;3.50;99.90
23081;DHT22;11708;50.570;8.532;2022-11-20T16:20:51;3.70;99.90
23081;DHT22;11708;50.570;8.532;2022-11-20T16:23:17;4.10;99.90
23081;DHT22;11708;50.570;8.532;2022-11-20T16:25:44;3.70;99.90
23081;DHT22;11708;50.570;8.532;2022-11-20T16:28:11;3.40;99.90
23081;DHT22;11708;50.570;8.532;2022-11-20T16:33:04;3.70;99.90
23081;DHT22;11708;50.570;8.532;2022-11-20T16:35:31;3.80;99.90
23081;DHT22;11708;50.570;8.532;2022-11-20T16:37:58;3.70;99.90
23081;DHT22;11708;50.570;8.532;2022-11-20T16:40:25;3.70;99.90
23081;DHT22;11708;50.570;8.532;2022-11-20T16:42:50;3.70;99.90
23081;DHT22;11708;50.570;8.532;2022-11-20T16:45:18;3.70;99.90
23081;DHT22;11708;50.570;8.532;2022-11-20T16:47:43;3.80;99.90
23081;DHT22;11708;50.570;8.532;2022-11-20T16:50:09;3.80;99.90
23081;DHT22;11708;50.570;8.532;2022-11-20T16:52:35;3.70;99.90
23081;DHT22;11708;50.570;8.532;2022-11-20T16:55:01;3.70;99.90
23081;DHT22;11708;50.570;8.532;2022-11-20T16:57:30;3.60;99.90
23081;DHT22;11708;50.570;8.532;2022-11-20T17:00:00;3.70;99.90
23081;DHT22;11708;50.570;8.532;2022-11-20T17:07:18;3.80;99.90
23081;DHT22;11708;50.570;8.532;2022-11-20T17:12:10;3.70;99.90
23081;DHT22;11708;50.570;8.532;2022-11-20T17:19:28;3.80;99.90
23081;DHT22;11708;50.570;8.532;2022-11-20T17:21:54;3.70;99.90
23081;DHT22;11708;50.570;8.532;2022-11-20T17:26:47;3.80;99.90
23081;DHT22;11708;50.570;8.532;2022-11-20T17:29:16;3.80;99.90
23081;DHT22;11708;50.570;8.532;2022-11-20T17:31:42;3.80;99.90
23081;DHT22;11708;50.570;8.532;2022-11-20T17:34:13;3.70;99.90
23081;DHT22;11708;50.570;8.532;2022-11-20T17:39:11;3.80;99.90
23081;DHT22;11708;50.570;8.532;2022-11-20T17:44:02;4.00;99.90
23081;DHT22;11708;50.570;8.532;2022-11-20T17:46:33;3.80;99.90
23081;DHT22;11708;50.570;8.532;2022-11-20T17:51:28;3.80;99.90
23081;DHT22;11708;50.570;8.532;2022-11-20T17:53:56;3.90;99.90
23081;DHT22;11708;50.570;8.532;2022-11-20T17:59:10;3.80;99.90
23081;DHT22;11708;50.570;8.532;2022-11-20T18:01:36;3.80;99.90
23081;DHT22;11708;50.570;8.532;2022-11-20T18:06:30;3.80;99.90
23081;DHT22;11708;50.570;8.532;2022-11-20T18:09:00;3.80;99.90
23081;DHT22;11708;50.570;8.532;2022-11-20T18:11:28;3.90;99.90
23081;DHT22;11708;50.570;8.532;2022-11-20T18:13:56;4.90;99.90
23081;DHT22;11708;50.570;8.532;2022-11-20T18:16:44;4.20;99.90
23081;DHT22;11708;50.570;8.532;2022-11-20T18:19:13;3.80;99.90
23081;DHT22;11708;50.570;8.532;2022-11-20T18:24:05;3.90;99.90
23081;DHT22;11708;50.570;8.532;2022-11-20T18:31:25;3.90;99.90
23081;DHT22;11708;50.570;8.532;2022-11-20T18:33:54;3.90;99.90
23081;DHT22;11708;50.570;8.532;2022-11-20T18:36:26;3.90;99.90
23081;DHT22;11708;50.570;8.532;2022-11-20T18:38:53;3.90;99.90
23081;DHT22;11708;50.570;8.532;2022-11-20T18:41:22;3.90;99.90
23081;DHT22;11708;50.570;8.532;2022-11-20T18:44:12;3.90;99.90
23081;DHT22;11708;50.570;8.532;2022-11-20T18:46:57;3.90;99.90
23081;DHT22;11708;50.570;8.532;2022-11-20T18:49:22;3.90;99.90
23081;DHT22;11708;50.570;8.532;2022-11-20T18:51:48;3.80;99.90
23081;DHT22;11708;50.570;8.532;2022-11-20T18:59:07;4.00;99.90
23081;DHT22;11708;50.570;8.532;2022-11-20T19:01:34;3.90;99.90
23081;DHT22;11708;50.570;8.532;2022-11-20T19:03:59;4.20;99.90
23081;DHT22;11708;50.570;8.532;2022-11-20T19:06:26;4.00;99.90
23081;DHT22;11708;50.570;8.532;2022-11-20T19:08:52;4.00;99.90
23081;DHT22;11708;50.570;8.532;2022-11-20T19:16:15;4.10;99.90
23081;DHT22;11708;50.570;8.532;2022-11-20T19:21:15;4.10;99.90
23081;DHT22;11708;50.570;8.532;2022-11-20T19:23:41;4.00;99.90
23081;DHT22;11708;50.570;8.532;2022-11-20T19:26:08;4.10;99.90
23081;DHT22;11708;50.570;8.532;2022-11-20T19:28:35;4.20;99.90
23081;DHT22;11708;50.570;8.532;2022-11-20T19:31:06;4.20;99.90
23081;DHT22;11708;50.570;8.532;2022-11-20T19:33:33;4.20;99.90
23081;DHT22;11708;50.570;8.532;2022-11-20T19:36:09;4.20;99.90
23081;DHT22;11708;50.570;8.532;2022-11-20T19:38:36;4.20;99.90
23081;DHT22;11708;50.570;8.532;2022-11-20T19:41:04;4.20;99.90
23081;DHT22;11708;50.570;8.532;2022-11-20T19:45:56;4.30;99.90
23081;DHT22;11708;50.570;8.532;2022-11-20T19:48:21;4.30;99.90
23081;DHT22;11708;50.570;8.532;2022-11-20T19:53:14;4.30;99.90
23081;DHT22;11708;50.570;8.532;2022-11-20T19:55:40;5.00;99.90
23081;DHT22;11708;50.570;8.532;2022-11-20T20:02:59;4.40;99.90
23081;DHT22;11708;50.570;8.532;2022-11-20T20:10:17;4.60;99.90
23081;DHT22;11708;50.570;8.532;2022-11-20T20:17:36;4.70;99.90
23081;DHT22;11708;50.570;8.532;2022-11-20T20:22:28;4.70;99.90
23081;DHT22;11708;50.570;8.532;2022-11-20T20:24:53;4.60;99.90
23081;DHT22;11708;50.570;8.532;2022-11-20T20:32:11;4.60;99.90
23081;DHT22;11708;50.570;8.532;2022-11-20T20:34:36;5.10;99.90
23081;DHT22;11708;50.570;8.532;2022-11-20T20:39:29;4.60;99.90
23081;DHT22;11708;50.570;8.532;2022-11-20T20:44:21;4.60;99.90
23081;DHT22;11708;50.570;8.532;2022-11-20T20:47:05;4.60;99.90
23081;DHT22;11708;50.570;8.532;2022-11-20T20:49:32;4.70;99.90
23081;DHT22;11708;50.570;8.532;2022-11-20T20:51:58;4.60;99.90
23081;DHT22;11708;50.570;8.532;2022-11-20T20:54:23;4.90;99.90
23081;DHT22;11708;50.570;8.532;2022-11-20T20:56:50;5.10;99.90
23081;DHT22;11708;50.570;8.532;2022-11-20T20:59:16;4.90;99.90
23081;DHT22;11708;50.570;8.532;2022-11-20T21:04:07;5.10;99.90
23081;DHT22;11708;50.570;8.532;2022-11-20T21:06:33;6.80;99.90
23081;DHT22;11708;50.570;8.532;2022-11-20T21:13:50;5.70;99.90
23081;DHT22;11708;50.570;8.532;2022-11-20T21:16:18;5.50;99.90
23081;DHT22;11708;50.570;8.532;2022-11-20T21:21:13;5.70;99.90
23081;DHT22;11708;50.570;8.532;2022-11-20T21:23:58;5.90;99.90
23081;DHT22;11708;50.570;8.532;2022-11-20T21:26:24;8.70;99.90
23081;DHT22;11708;50.570;8.532;2022-11-20T21:31:21;6.00;99.90
23081;DHT22;11708;50.570;8.532;2022-11-20T21:33:50;5.90;99.90
23081;DHT22;11708;50.570;8.532;2022-11-20T21:36:19;6.10;99.90
23081;DHT22;11708;50.570;8.532;2022-11-20T21:38:45;5.90;99.90
23081;DHT22;11708;50.570;8.532;2022-11-20T21:41:14;6.00;99.90
23081;DHT22;11708;50.570;8.532;2022-11-20T21:46:12;5.90;99.90
23081;DHT22;11708;50.570;8.532;2022-11-20T21:48:40;6.10;99.90
23081;DHT22;11708;50.570;8.532;2022-11-20T21:51:13;6.20;99.90
23081;DHT22;11708;50.570;8.532;2022-11-20T21:53:46;6.10;99.90
23081;DHT22;11708;50.570;8.532;2022-11-20T21:56:16;6.10;99.90
23081;DHT22;11708;50.570;8.532;2022-11-20T21:58:44;6.10;99.90
23081;DHT22;11708;50.570;8.532;2022-11-20T22:01:15;6.20;99.90
23081;DHT22;11708;50.570;8.532;2022-11-20T22:03:47;6.20;99.90
23081;DHT22;11708;50.570;8.532;2022-11-20T22:06:13;6.00;99.90
23081;DHT22;11708;50.570;8.532;2022-11-20T22:08:41;5.90;99.90
23081;DHT22;11708;50.570;8.532;2022-11-20T22:11:12;5.90;99.90
23081;DHT22;11708;50.570;8.532;2022-11-20T22:13:39;6.10;99.90
23081;DHT22;11708;50.570;8.532;2022-11-20T22:16:24;6.30;99.90
23081;DHT22;11708;50.570;8.532;2022-11-20T22:18:54;6.20;99.90
23081;DHT22;11708;50.570;8.532;2022-11-20T22:21:26;6.10;99.90
23081;DHT22;11708;50.570;8.532;2022-11-20T22:23:54;6.40;99.90
23081;DHT22;11708;50.570;8.532;2022-11-20T22:26:25;6.30;99.90
23081;DHT22;11708;50.570;8.532;2022-11-20T22:28:53;6.30;99.90
23081;DHT22;11708;50.570;8.532;2022-11-20T22:31:24;6.70;99.90
23081;DHT22;11708;50.570;8.532;2022-11-20T22:33:49;5.90;99.90
23081;DHT22;11708;50.570;8.532;2022-11-20T22:36:18;6.20;99.90
23081;DHT22;11708;50.570;8.532;2022-11-20T22:38:45;6.10;99.90
23081;DHT22;11708;50.570;8.532;2022-11-20T22:41:16;6.70;99.90
23081;DHT22;11708;50.570;8.532;2022-11-20T22:43:43;6.10;99.90
23081;DHT22;11708;50.570;8.532;2022-11-20T22:46:10;6.60;99.90
23081;DHT22;11708;50.570;8.532;2022-11-20T22:48:38;6.40;99.90
23081;DHT22;11708;50.570;8.532;2022-11-20T22:51:09;6.40;99.90
23081;DHT22;11708;50.570;8.532;2022-11-20T22:56:02;6.20;99.90
23081;DHT22;11708;50.570;8.532;2022-11-20T22:58:31;6.30;99.90
23081;DHT22;11708;50.570;8.532;2022-11-20T23:06:00;6.30;99.90
23081;DHT22;11708;50.570;8.532;2022-11-20T23:08:26;6.60;99.90
23081;DHT22;11708;50.570;8.532;2022-11-20T23:13:21;6.30;99.90
23081;DHT22;11708;50.570;8.532;2022-11-20T23:15:48;6.50;99.90
23081;DHT22;11708;50.570;8.532;2022-11-20T23:18:14;6.80;99.90
23081;DHT22;11708;50.570;8.532;2022-11-20T23:20:40;6.80;99.90
23081;DHT22;11708;50.570;8.532;2022-11-20T23:25:31;6.20;99.90
23081;DHT22;11708;50.570;8.532;2022-11-20T23:27:57;6.90;99.90
23081;DHT22;11708;50.570;8.532;2022-11-20T23:30:34;6.70;99.90
23081;DHT22;11708;50.570;8.532;2022-11-20T23:33:03;6.40;99.90
23081;DHT22;11708;50.570;8.532;2022-11-20T23:35:29;6.30;99.90
23081;DHT22;11708;50.570;8.532;2022-11-20T23:37:56;6.50;99.90
23081;DHT22;11708;50.570;8.532;2022-11-20T23:40:23;6.50;99.90
23081;DHT22;11708;50.570;8.532;2022-11-20T23:42:49;6.20;99.90
23081;DHT22;11708;50.570;8.532;2022-11-20T23:45:37;6.20;99.90
23081;DHT22;11708;50.570;8.532;2022-11-20T23:48:04;6.30;99.90
23081;DHT22;11708;50.570;8.532;2022-11-20T23:50:29;6.60;99.90
23081;DHT22;11708;50.570;8.532;2022-11-20T23:52:55;6.30;99.90
23081;DHT22;11708;50.570;8.532;2022-11-20T23:57:49;6.30;99.90
